Bremen — C6JC3 — position and weather

sailwx.info

Track history (hours):
 
Tides and Currents Weather Stations Pressure Air Temp Water Temp Dewpoint Dewpoint Depression Visibility Wind Speed Wind Dir Waves Ship Positions

Bremen

Operator: Hapag-Lloyd Container Line

Last reported at 2018-May-27 13:59 UTC. Time now 2018-May-27 13:58 UTC.
Position N 38°24' W 028°16'.

Length 111.5 m; beam 17 m; draft 4.8 m.

Type: Ship. MMSI: 308429000.

Date/timePositionNaut miles runAvg speedWind from/ knotsBaromVisibWave heightAir tempDewpointWater temp
2018-May-27 13:59N 38°24' W 028°16'0 0.0
2018-May-27 13:29N 38°24' W 028°16'0 0.0
2018-May-27 12:56N 38°24' W 028°16'0 0.0
2018-May-27 12:29N 38°24' W 028°16'0 0.0
2018-May-27 11:59N 38°24' W 028°16'0 0.1
2018-May-27 11:29N 38°24' W 028°16'0 0.0
2018-May-27 10:59N 38°24' W 028°16'0 0.0
2018-May-27 10:29N 38°24' W 028°16'0 0.0
2018-May-27 09:56N 38°24' W 028°16'0 0.0
2018-May-27 09:29N 38°24' W 028°16'0 0.0
2018-May-27 08:59N 38°24' W 028°16'0 0.0
2018-May-27 08:29N 38°24' W 028°16'0 0.0
2018-May-27 08:00N 38°24' W 028°16'0 0.0
2018-May-27 07:30N 38°24' W 028°16'2 4.9
2018-May-27 07:00N 38°22' W 028°15'4 7.7
2018-May-27 06:30N 38°22' W 028°10'4 8.2
2018-May-27 06:00N 38°22' W 028°05'4 8.3
2018-May-27 05:30N 38°24' W 028°00'4 8.2
2018-May-27 05:00N 38°25' W 027°55'4 7.7
2018-May-27 04:30N 38°26' W 027°51'4 7.4
2018-May-27 04:00N 38°28' W 027°46'4 7.6
2018-May-27 03:30N 38°29' W 027°42'4 7.5
2018-May-27 03:00N 38°31' W 027°37'4 7.8
2018-May-27 02:30N 38°32' W 027°33'4 7.9
2018-May-27 02:00N 38°33' W 027°28'4 7.6
2018-May-27 01:30N 38°35' W 027°24'4 7.2
2018-May-27 01:00N 38°36' W 027°19'4 7.3
2018-May-27 00:31N 38°37' W 027°15'2 2.3
2018-May-26 23:28N 38°39' W 027°13'0 0.0
2018-May-26 22:49N 38°39' W 027°13'0 0.0
2018-May-26 21:52N 38°39' W 027°13'0 0.0
2018-May-26 21:13N 38°39' W 027°13'0 0.0
2018-May-26 20:43N 38°39' W 027°13'0 0.0
2018-May-26 20:25N 38°39' W 027°13'0 0.0
2018-May-26 19:55N 38°39' W 027°13'0 0.0
2018-May-26 19:19N 38°39' W 027°13'0 0.0
2018-May-26 18:55N 38°39' W 027°13'0 0.0
2018-May-26 18:27N 38°39' W 027°13'0 0.0
2018-May-26 17:57N 38°39' W 027°13'0 0.0
2018-May-26 17:30N 38°39' W 027°13'0 0.0
2018-May-26 16:51N 38°39' W 027°13'0 0.0
2018-May-26 16:27N 38°39' W 027°13'0 0.0
2018-May-26 15:51N 38°39' W 027°13'0 0.0
2018-May-26 15:12N 38°39' W 027°13'0 0.0
2018-May-26 14:57N 38°39' W 027°13'0 0.0
2018-May-26 14:15N 38°39' W 027°13'0 0.0
2018-May-26 13:57N 38°39' W 027°13'0 0.0
2018-May-26 13:30N 38°39' W 027°13'0 0.0
2018-May-26 12:51N 38°39' W 027°13'0 0.0
2018-May-26 12:30N 38°39' W 027°13'3 6.2
2018-May-26 12:00N 38°36' W 027°12'377.2 160 / 71027.010.8 19.013.818.0
2018-May-26 11:57N 38°39' W 027°13'0 0.0
2018-May-26 11:27N 38°39' W 027°13'0 0.0
2018-May-26 10:57N 38°39' W 027°13'0 0.0
2018-May-26 10:18N 38°39' W 027°13'0 0.0
2018-May-26 07:49N 38°39' W 027°13'1 2.2
2018-May-26 07:29N 38°38' W 027°13'4 7.4
2018-May-26 07:00N 38°36' W 027°10'4 8.7
2018-May-26 06:30N 38°32' W 027°06'9 8.7
2018-May-26 05:30N 38°26' W 026°59'4 8.6
2018-May-26 05:00N 38°23' W 026°55'4 7.8
2018-May-26 04:30N 38°20' W 026°52'4 7.9
2018-May-26 04:01N 38°17' W 026°48'4 8.4
2018-May-26 03:30N 38°14' W 026°44'4 8.0
2018-May-26 03:01N 38°11' W 026°41'4 7.9
2018-May-26 02:30N 38°08' W 026°37'4 8.0
2018-May-26 02:00N 38°06' W 026°34'4 7.6
2018-May-26 01:31N 38°03' W 026°30'4 7.9
2018-May-26 01:00N 37°60' W 026°27'4 7.9
2018-May-26 00:30N 37°57' W 026°24'4 7.8
2018-May-26 00:01N 37°54' W 026°20'4 7.9
2018-May-25 23:30N 37°51' W 026°17'4 7.7
2018-May-25 23:00N 37°49' W 026°13'4 7.7
2018-May-25 22:30N 37°46' W 026°10'4 8.3
2018-May-25 22:00N 37°43' W 026°07'4 8.8
2018-May-25 21:30N 37°39' W 026°03'4 8.5
2018-May-25 21:00N 37°36' W 025°59'4 8.4
2018-May-25 20:30N 37°33' W 025°55'4 8.7
2018-May-25 20:00N 37°30' W 025°52'4 8.5
2018-May-25 19:30N 37°27' W 025°48'4 8.3
2018-May-25 19:00N 37°24' W 025°44'4 8.7
2018-May-25 18:30N 37°21' W 025°41'4 8.6
2018-May-25 18:00N 37°18' W 025°37'4 8.6
2018-May-25 17:30N 37°15' W 025°33'4 8.7
2018-May-25 17:00N 37°11' W 025°30'4 8.2
2018-May-25 16:30N 37°08' W 025°26'4 8.0
2018-May-25 16:00N 37°05' W 025°23'4 8.0
2018-May-25 15:30N 37°03' W 025°20'4 8.1
2018-May-25 15:01N 36°60' W 025°16'4 8.3
2018-May-25 14:30N 36°57' W 025°12'3 5.4
2018-May-25 14:00N 36°57' W 025°09'0 0.1
2018-May-25 13:28N 36°57' W 025°09'0 0.0
2018-May-25 12:58N 36°57' W 025°09'0 0.0
2018-May-25 12:28N 36°57' W 025°09'3 7.3
2018-May-25 12:00N 36°54' W 025°06'3133.9 1028.027.0 18.514.618.0
2018-May-25 11:58N 36°57' W 025°09'0 0.0
2018-May-25 11:28N 36°57' W 025°09'0 0.0
2018-May-25 10:58N 36°57' W 025°09'0 0.0
2018-May-25 10:28N 36°57' W 025°09'0 0.0
2018-May-25 09:58N 36°57' W 025°09'0 0.0
2018-May-25 09:28N 36°57' W 025°09'0 0.0
2018-May-25 08:58N 36°57' W 025°09'0 0.0
2018-May-25 08:28N 36°57' W 025°09'0 0.0
2018-May-25 07:59N 36°57' W 025°09'1 1.7
2018-May-25 07:30N 36°56' W 025°09'4 8.9
2018-May-25 07:00N 36°53' W 025°04'611.1
2018-May-25 06:30N 36°51' W 024°58'611.1
2018-May-25 06:00N 36°48' W 024°52'611.2
2018-May-25 05:30N 36°45' W 024°46'611.5
2018-May-25 05:00N 36°43' W 024°40'611.4
2018-May-25 04:31N 36°40' W 024°33'611.5
2018-May-25 04:00N 36°37' W 024°27'612.0
2018-May-25 03:30N 36°35' W 024°20'612.1
2018-May-25 03:00N 36°32' W 024°13'612.4
2018-May-25 02:30N 36°29' W 024°06'612.5
2018-May-25 02:00N 36°26' W 023°60'612.8
2018-May-25 01:30N 36°23' W 023°53'712.9
2018-May-25 00:57N 36°20' W 023°45'612.6
2018-May-25 00:29N 36°17' W 023°38'1812.4
2018-May-24 23:00N 36°09' W 023°18'812.4
2018-May-24 22:20N 36°05' W 023°09'812.4
2018-May-24 21:42N 36°01' W 023°00'312.3
2018-May-24 21:30N 35°60' W 022°58'812.4
2018-May-24 20:52N 35°56' W 022°49'11112.5
2018-May-24 12:00N 35°06' W 020°48'25710.3 360 / 201022.010.8 18.013.917.5
2018-May-23 11:00N 33°00' W 016°18'39 1.6 040 / 201016.010.8 18.514.617.5
2018-May-22 11:00N 32°36' W 016°54'49 2.0 120 / 61017.010.8 19.514.719.0
2018-May-21 11:00N 31°54' W 016°24'20013.5 020 / 91018.027.0 19.012.319.5
2018-May-20 20:07N 28°34' W 016°05'111.9
2018-May-20 20:01N 28°33' W 016°05'612.3
2018-May-20 19:31N 28°29' W 016°10'4 8.6
2018-May-20 19:00N 28°28' W 016°15'0 0.0
2018-May-20 18:30N 28°28' W 016°15'0 0.0
2018-May-20 18:00N 28°28' W 016°15'0 0.0
2018-May-20 17:30N 28°28' W 016°15'0 0.0
2018-May-20 17:00N 28°28' W 016°15'0 0.0
2018-May-20 16:30N 28°28' W 016°15'0 0.0
2018-May-20 16:00N 28°28' W 016°15'0 0.0
2018-May-20 15:30N 28°28' W 016°15'0 0.0
2018-May-20 15:00N 28°28' W 016°15'0 0.0
2018-May-20 14:30N 28°28' W 016°15'0 0.0
2018-May-20 14:00N 28°28' W 016°15'0 0.0
2018-May-20 13:30N 28°28' W 016°15'0 0.0
2018-May-20 13:00N 28°28' W 016°15'0 0.0
2018-May-20 12:30N 28°28' W 016°15'0 0.0
2018-May-20 12:00N 28°28' W 016°15'0 0.0
2018-May-20 11:30N 28°28' W 016°15'0 0.0
2018-May-20 11:00N 28°28' W 016°15'5331.2
2018-May-20 11:00N 28°24' W 016°12'510.2 1018.010.8 20.013.018.5
2018-May-20 10:30N 28°28' W 016°15'0 0.0
2018-May-20 10:00N 28°28' W 016°15'0 0.0
2018-May-20 09:30N 28°28' W 016°15'0 0.0
2018-May-20 09:00N 28°28' W 016°15'0 0.0
2018-May-20 08:30N 28°28' W 016°15'0 0.0
2018-May-20 08:00N 28°28' W 016°15'0 0.0
2018-May-20 07:30N 28°28' W 016°15'0 0.0
2018-May-20 07:00N 28°28' W 016°15'0 0.0
2018-May-20 06:29N 28°28' W 016°15'0 0.0
2018-May-20 06:00N 28°28' W 016°15'1 2.9
2018-May-20 05:31N 28°28' W 016°13'5 9.9
2018-May-20 05:01N 28°23' W 016°15'510.4
2018-May-20 04:30N 28°19' W 016°17'510.8
2018-May-20 04:00N 28°14' W 016°19'612.1
2018-May-20 03:28N 28°08' W 016°22'19211.6
2018-May-19 11:00N 25°30' W 018°24'30712.8 040 / 101019.027.0 20.513.920.5
2018-May-18 11:00N 21°18' W 021°36'   030 / 121018.010.8 21.016.621.0
Track history (hours):
 
Tides and Currents Weather Stations Pressure Air Temp Water Temp Dewpoint Dewpoint Depression Visibility Wind Speed Wind Dir Waves Ship Positions

Bremen

Operator: Hapag-Lloyd Container Line

Last reported at 2018-May-27 13:59 UTC. Time now 2018-May-27 13:58 UTC.
Position N 38°24' W 028°16'.

Length 111.5 m; beam 17 m; draft 4.8 m.

Type: Ship. MMSI: 308429000.

Date/timePositionNaut miles runAvg speedWind from/ knotsBaromVisibWave heightAir tempDewpointWater temp
2018-May-27 13:59N 38°24' W 028°16'0 0.0
2018-May-27 13:29N 38°24' W 028°16'0 0.0
2018-May-27 12:56N 38°24' W 028°16'0 0.0
2018-May-27 12:29N 38°24' W 028°16'0 0.0
2018-May-27 11:59N 38°24' W 028°16'0 0.1
2018-May-27 11:29N 38°24' W 028°16'0 0.0
2018-May-27 10:59N 38°24' W 028°16'0 0.0
2018-May-27 10:29N 38°24' W 028°16'0 0.0
2018-May-27 09:56N 38°24' W 028°16'0 0.0
2018-May-27 09:29N 38°24' W 028°16'0 0.0
2018-May-27 08:59N 38°24' W 028°16'0 0.0
2018-May-27 08:29N 38°24' W 028°16'0 0.0
2018-May-27 08:00N 38°24' W 028°16'0 0.0
2018-May-27 07:30N 38°24' W 028°16'2 4.9
2018-May-27 07:00N 38°22' W 028°15'4 7.7
2018-May-27 06:30N 38°22' W 028°10'4 8.2
2018-May-27 06:00N 38°22' W 028°05'4 8.3
2018-May-27 05:30N 38°24' W 028°00'4 8.2
2018-May-27 05:00N 38°25' W 027°55'4 7.7
2018-May-27 04:30N 38°26' W 027°51'4 7.4
2018-May-27 04:00N 38°28' W 027°46'4 7.6
2018-May-27 03:30N 38°29' W 027°42'4 7.5
2018-May-27 03:00N 38°31' W 027°37'4 7.8
2018-May-27 02:30N 38°32' W 027°33'4 7.9
2018-May-27 02:00N 38°33' W 027°28'4 7.6
2018-May-27 01:30N 38°35' W 027°24'4 7.2
2018-May-27 01:00N 38°36' W 027°19'4 7.3
2018-May-27 00:31N 38°37' W 027°15'2 2.3
2018-May-26 23:28N 38°39' W 027°13'0 0.0
2018-May-26 22:49N 38°39' W 027°13'0 0.0
2018-May-26 21:52N 38°39' W 027°13'0 0.0
2018-May-26 21:13N 38°39' W 027°13'0 0.0
2018-May-26 20:43N 38°39' W 027°13'0 0.0
2018-May-26 20:25N 38°39' W 027°13'0 0.0
2018-May-26 19:55N 38°39' W 027°13'0 0.0
2018-May-26 19:19N 38°39' W 027°13'0 0.0
2018-May-26 18:55N 38°39' W 027°13'0 0.0
2018-May-26 18:27N 38°39' W 027°13'0 0.0
2018-May-26 17:57N 38°39' W 027°13'0 0.0
2018-May-26 17:30N 38°39' W 027°13'0 0.0
2018-May-26 16:51N 38°39' W 027°13'0 0.0
2018-May-26 16:27N 38°39' W 027°13'0 0.0
2018-May-26 15:51N 38°39' W 027°13'0 0.0
2018-May-26 15:12N 38°39' W 027°13'0 0.0
2018-May-26 14:57N 38°39' W 027°13'0 0.0
2018-May-26 14:15N 38°39' W 027°13'0 0.0
2018-May-26 13:57N 38°39' W 027°13'0 0.0
2018-May-26 13:30N 38°39' W 027°13'0 0.0
2018-May-26 12:51N 38°39' W 027°13'0 0.0
2018-May-26 12:30N 38°39' W 027°13'3 6.2
2018-May-26 12:00N 38°36' W 027°12'377.2 160 / 71027.010.8 19.013.818.0
2018-May-26 11:57N 38°39' W 027°13'0 0.0
2018-May-26 11:27N 38°39' W 027°13'0 0.0
2018-May-26 10:57N 38°39' W 027°13'0 0.0
2018-May-26 10:18N 38°39' W 027°13'0 0.0
2018-May-26 07:49N 38°39' W 027°13'1 2.2
2018-May-26 07:29N 38°38' W 027°13'4 7.4
2018-May-26 07:00N 38°36' W 027°10'4 8.7
2018-May-26 06:30N 38°32' W 027°06'9 8.7
2018-May-26 05:30N 38°26' W 026°59'4 8.6
2018-May-26 05:00N 38°23' W 026°55'4 7.8
2018-May-26 04:30N 38°20' W 026°52'4 7.9
2018-May-26 04:01N 38°17' W 026°48'4 8.4
2018-May-26 03:30N 38°14' W 026°44'4 8.0
2018-May-26 03:01N 38°11' W 026°41'4 7.9
2018-May-26 02:30N 38°08' W 026°37'4 8.0
2018-May-26 02:00N 38°06' W 026°34'4 7.6
2018-May-26 01:31N 38°03' W 026°30'4 7.9
2018-May-26 01:00N 37°60' W 026°27'4 7.9
2018-May-26 00:30N 37°57' W 026°24'4 7.8
2018-May-26 00:01N 37°54' W 026°20'4 7.9
2018-May-25 23:30N 37°51' W 026°17'4 7.7
2018-May-25 23:00N 37°49' W 026°13'4 7.7
2018-May-25 22:30N 37°46' W 026°10'4 8.3
2018-May-25 22:00N 37°43' W 026°07'4 8.8
2018-May-25 21:30N 37°39' W 026°03'4 8.5
2018-May-25 21:00N 37°36' W 025°59'4 8.4
2018-May-25 20:30N 37°33' W 025°55'4 8.7
2018-May-25 20:00N 37°30' W 025°52'4 8.5
2018-May-25 19:30N 37°27' W 025°48'4 8.3
2018-May-25 19:00N 37°24' W 025°44'4 8.7
2018-May-25 18:30N 37°21' W 025°41'4 8.6
2018-May-25 18:00N 37°18' W 025°37'4 8.6
2018-May-25 17:30N 37°15' W 025°33'4 8.7
2018-May-25 17:00N 37°11' W 025°30'4 8.2
2018-May-25 16:30N 37°08' W 025°26'4 8.0
2018-May-25 16:00N 37°05' W 025°23'4 8.0
2018-May-25 15:30N 37°03' W 025°20'4 8.1
2018-May-25 15:01N 36°60' W 025°16'4 8.3
2018-May-25 14:30N 36°57' W 025°12'3 5.4
2018-May-25 14:00N 36°57' W 025°09'0 0.1
2018-May-25 13:28N 36°57' W 025°09'0 0.0
2018-May-25 12:58N 36°57' W 025°09'0 0.0
2018-May-25 12:28N 36°57' W 025°09'3 7.3
2018-May-25 12:00N 36°54' W 025°06'3133.9 1028.027.0 18.514.618.0
2018-May-25 11:58N 36°57' W 025°09'0 0.0
2018-May-25 11:28N 36°57' W 025°09'0 0.0
2018-May-25 10:58N 36°57' W 025°09'0 0.0
2018-May-25 10:28N 36°57' W 025°09'0 0.0
2018-May-25 09:58N 36°57' W 025°09'0 0.0
2018-May-25 09:28N 36°57' W 025°09'0 0.0
2018-May-25 08:58N 36°57' W 025°09'0 0.0
2018-May-25 08:28N 36°57' W 025°09'0 0.0
2018-May-25 07:59N 36°57' W 025°09'1 1.7
2018-May-25 07:30N 36°56' W 025°09'4 8.9
2018-May-25 07:00N 36°53' W 025°04'611.1
2018-May-25 06:30N 36°51' W 024°58'611.1
2018-May-25 06:00N 36°48' W 024°52'611.2
2018-May-25 05:30N 36°45' W 024°46'611.5
2018-May-25 05:00N 36°43' W 024°40'611.4
2018-May-25 04:31N 36°40' W 024°33'611.5
2018-May-25 04:00N 36°37' W 024°27'612.0
2018-May-25 03:30N 36°35' W 024°20'612.1
2018-May-25 03:00N 36°32' W 024°13'612.4
2018-May-25 02:30N 36°29' W 024°06'612.5
2018-May-25 02:00N 36°26' W 023°60'612.8
2018-May-25 01:30N 36°23' W 023°53'712.9
2018-May-25 00:57N 36°20' W 023°45'612.6
2018-May-25 00:29N 36°17' W 023°38'1812.4
2018-May-24 23:00N 36°09' W 023°18'812.4
2018-May-24 22:20N 36°05' W 023°09'812.4
2018-May-24 21:42N 36°01' W 023°00'312.3
2018-May-24 21:30N 35°60' W 022°58'812.4
2018-May-24 20:52N 35°56' W 022°49'11112.5
2018-May-24 12:00N 35°06' W 020°48'25710.3 360 / 201022.010.8 18.013.917.5
2018-May-23 11:00N 33°00' W 016°18'39 1.6 040 / 201016.010.8 18.514.617.5
2018-May-22 11:00N 32°36' W 016°54'49 2.0 120 / 61017.010.8 19.514.719.0
2018-May-21 11:00N 31°54' W 016°24'20013.5 020 / 91018.027.0 19.012.319.5
2018-May-20 20:07N 28°34' W 016°05'111.9
2018-May-20 20:01N 28°33' W 016°05'612.3
2018-May-20 19:31N 28°29' W 016°10'4 8.6
2018-May-20 19:00N 28°28' W 016°15'0 0.0
2018-May-20 18:30N 28°28' W 016°15'0 0.0
2018-May-20 18:00N 28°28' W 016°15'0 0.0
2018-May-20 17:30N 28°28' W 016°15'0 0.0
2018-May-20 17:00N 28°28' W 016°15'0 0.0
2018-May-20 16:30N 28°28' W 016°15'0 0.0
2018-May-20 16:00N 28°28' W 016°15'0 0.0
2018-May-20 15:30N 28°28' W 016°15'0 0.0
2018-May-20 15:00N 28°28' W 016°15'0 0.0
2018-May-20 14:30N 28°28' W 016°15'0 0.0
2018-May-20 14:00N 28°28' W 016°15'0 0.0
2018-May-20 13:30N 28°28' W 016°15'0 0.0
2018-May-20 13:00N 28°28' W 016°15'0 0.0
2018-May-20 12:30N 28°28' W 016°15'0 0.0
2018-May-20 12:00N 28°28' W 016°15'0 0.0
2018-May-20 11:30N 28°28' W 016°15'0 0.0
2018-May-20 11:00N 28°28' W 016°15'5331.2
2018-May-20 11:00N 28°24' W 016°12'510.2 1018.010.8 20.013.018.5
2018-May-20 10:30N 28°28' W 016°15'0 0.0
2018-May-20 10:00N 28°28' W 016°15'0 0.0
2018-May-20 09:30N 28°28' W 016°15'0 0.0
2018-May-20 09:00N 28°28' W 016°15'0 0.0
2018-May-20 08:30N 28°28' W 016°15'0 0.0
2018-May-20 08:00N 28°28' W 016°15'0 0.0
2018-May-20 07:30N 28°28' W 016°15'0 0.0
2018-May-20 07:00N 28°28' W 016°15'0 0.0
2018-May-20 06:29N 28°28' W 016°15'0 0.0
2018-May-20 06:00N 28°28' W 016°15'1 2.9
2018-May-20 05:31N 28°28' W 016°13'5 9.9
2018-May-20 05:01N 28°23' W 016°15'510.4
2018-May-20 04:30N 28°19' W 016°17'510.8
2018-May-20 04:00N 28°14' W 016°19'612.1
2018-May-20 03:28N 28°08' W 016°22'19211.6
2018-May-19 11:00N 25°30' W 018°24'30712.8 040 / 101019.027.0 20.513.920.5
2018-May-18 11:00N 21°18' W 021°36'   030 / 121018.010.8 21.016.621.0

Dump ship's entire track history